Time;durP1;ratioP1;P1;durP2;ratioP2;P2;SDS_P1;SDS_P2;PMS_P1;PMS_P2;Temp;Humidity;BMP_temperature;BMP_pressure;BME280_temperature;BME280_humidity;BME280_pressure;Samples;Min_cycle;Max_cycle;Signal;HPM_P1;HPM_P2
2021/12/05 00:23:58;;;;;;;80.05;30.60;;;;;;;-1.58;87.35;96870.50;1693934;83;21510;-81
2021/12/05 00:26:19;;;;;;;74.60;27.98;;;;;;;-1.52;87.34;96874.39;1689825;83;21066;-80
2021/12/05 00:29:05;;;;;;;78.30;29.63;;;;;;;-1.52;87.30;96872.67;1688836;84;21065;-80
2021/12/05 00:34:14;;;;;;;82.90;30.20;;;;;;;-1.48;86.70;96869.21;1686623;83;20996;-80
2021/12/05 00:39:28;;;;;;;82.47;30.85;;;;;;;-1.52;86.17;96872.67;1687970;84;21050;-80
2021/12/05 00:51:10;;;;;;;75.08;26.95;;;;;;;-1.61;87.09;96883.05;1688962;83;21418;-76
2021/12/05 00:53:03;;;;;;;63.60;25.97;;;;;;;-1.62;87.49;96880.03;1679047;83;21462;-78
2021/12/05 01:06:19;;;;;;;71.57;26.27;;;;;;;-1.69;87.25;96858.37;1690081;83;21012;-79
2021/12/05 01:16:31;;;;;;;67.92;26.17;;;;;;;-1.83;87.85;96851.84;1652875;86;21079;-77
2021/12/05 01:18:59;;;;;;;74.67;28.40;;;;;;;-1.87;86.81;96844.48;1650742;86;21069;-77
2021/12/05 01:21:27;;;;;;;71.37;26.90;;;;;;;-1.87;87.16;96843.64;1648868;85;21332;-77
2021/12/05 01:26:36;;;;;;;70.60;26.90;;;;;;;-1.90;86.35;96854.02;1650685;86;21058;-76
2021/12/05 01:29:07;;;;;;;57.93;23.10;;;;;;;-1.96;87.38;96856.16;1627020;86;21592;-78
2021/12/05 01:37:04;;;;;;;58.55;23.18;;;;;;;-2.04;86.84;96856.59;1649839;86;21047;-78
2021/12/05 01:39:34;;;;;;;58.33;22.77;;;;;;;-2.07;86.94;96859.17;1642534;85;21445;-78
2021/12/05 01:47:24;;;;;;;49.65;21.02;;;;;;;-2.05;86.96;96850.52;1651015;85;21041;-77
2021/12/05 01:52:38;;;;;;;57.43;21.60;;;;;;;-2.05;86.73;96845.33;1649168;86;21028;-77
2021/12/05 02:03:12;;;;;;;50.63;21.45;;;;;;;-2.17;86.81;96832.31;1651339;86;21062;-77
2021/12/05 02:11:19;;;;;;;58.80;21.68;;;;;;;-2.16;87.00;96827.58;1642013;85;21002;-77
2021/12/05 02:16:36;;;;;;;51.20;20.75;;;;;;;-2.15;86.61;96819.77;1664865;84;20965;-77
2021/12/05 02:43:00;;;;;;;50.28;19.67;;;;;;;-2.24;86.57;96794.24;1601100;86;20993;-76
2021/12/05 02:45:20;;;;;;;47.67;19.67;;;;;;;-2.28;86.99;96802.45;1672252;85;21100;-76
2021/12/05 02:47:53;;;;;;;41.23;18.00;;;;;;;-2.27;86.65;96801.17;1669213;86;21035;-76
2021/12/05 02:50:25;;;;;;;43.73;18.62;;;;;;;-2.28;86.50;96801.16;1664883;86;21047;-76
2021/12/05 02:52:57;;;;;;;44.60;19.48;;;;;;;-2.30;86.26;96797.67;1665051;85;21445;-76
2021/12/05 02:55:36;;;;;;;48.40;20.32;;;;;;;-2.32;86.14;96791.63;1665651;85;21027;-77
2021/12/05 02:58:01;;;;;;;42.65;18.67;;;;;;;-2.34;86.30;96795.94;1664533;85;20980;-81
2021/12/05 03:00:45;;;;;;;45.23;18.73;;;;;;;-2.33;85.92;96792.05;1669942;85;21006;-81
2021/12/05 03:03:05;;;;;;;35.92;17.17;;;;;;;-2.43;85.75;96792.89;1658623;85;20973;-81
2021/12/05 03:05:32;;;;;;;40.65;17.73;;;;;;;-2.48;86.42;96792.90;1681632;85;21474;-81
2021/12/05 03:08:01;;;;;;;45.25;18.60;;;;;;;-2.47;86.12;96795.05;1681685;84;20993;-82
2021/12/05 03:10:29;;;;;;;36.17;16.52;;;;;;;-2.49;86.03;96793.73;1681828;85;20985;-80
2021/12/05 03:12:56;;;;;;;40.75;17.82;;;;;;;-2.51;85.89;96788.98;1674902;85;21048;-80
2021/12/05 03:15:23;;;;;;;41.88;17.07;;;;;;;-2.54;86.15;96786.38;1664751;86;21034;-81
2021/12/05 03:17:51;;;;;;;40.30;18.12;;;;;;;-2.55;85.92;96790.72;1665016;86;20964;-81
2021/12/05 03:20:19;;;;;;;37.83;16.85;;;;;;;-2.54;86.10;96786.38;1664785;85;21449;-80
2021/12/05 03:22:56;;;;;;;36.23;17.12;;;;;;;-2.50;86.06;96782.93;1820585;79;23925;-81
2021/12/05 03:25:24;;;;;;;36.80;17.90;;;;;;;-2.54;86.37;96792.44;1793775;80;21000;-80
2021/12/05 03:27:51;;;;;;;42.03;19.32;;;;;;;-2.45;86.15;96794.63;1793683;80;20972;-79
2021/12/05 03:30:24;;;;;;;39.03;16.77;;;;;;;-2.46;85.93;96792.91;1769421;80;21008;-80
2021/12/05 03:32:54;;;;;;;40.90;17.82;;;;;;;-2.50;85.78;96788.12;1759598;81;21438;-79
2021/12/05 03:35:25;;;;;;;33.67;16.42;;;;;;;-2.54;85.72;96790.27;1759402;81;21008;-80
2021/12/05 03:37:56;;;;;;;39.23;17.87;;;;;;;-2.58;85.67;96791.14;1729787;81;20985;-80
2021/12/05 03:40:29;;;;;;;39.78;16.62;;;;;;;-2.55;86.21;96793.73;1760189;80;21000;-79
2021/12/05 03:42:58;;;;;;;46.90;19.75;;;;;;;-2.50;86.00;96794.61;1759535;81;21431;-79
2021/12/05 03:45:30;;;;;;;46.13;19.25;;;;;;;-2.49;86.38;96794.19;1759572;81;21005;-79
2021/12/05 03:47:59;;;;;;;50.65;20.95;;;;;;;-2.47;86.11;96792.03;1759663;81;20953;-79
2021/12/05 03:50:28;;;;;;;49.27;19.98;;;;;;;-2.46;86.11;96792.45;1759430;81;21426;-79
2021/12/05 03:52:55;;;;;;;45.28;20.40;;;;;;;-2.45;86.06;96788.99;1791211;80;20992;-80
2021/12/05 03:55:24;;;;;;;54.77;21.10;;;;;;;-2.37;86.14;96785.57;1794313;80;21024;-80
2021/12/05 03:57:51;;;;;;;49.58;19.00;;;;;;;-2.39;86.15;96781.25;1794179;80;20984;-80
2021/12/05 04:00:27;;;;;;;49.53;20.92;;;;;;;-2.37;86.28;96779.92;1794381;80;21008;-80
2021/12/05 04:02:57;;;;;;;53.68;20.30;;;;;;;-2.31;85.98;96774.77;1788532;80;21027;-81
2021/12/05 04:05:26;;;;;;;57.95;21.12;;;;;;;-2.36;85.74;96781.69;1759669;81;21048;-81
2021/12/05 04:07:54;;;;;;;56.98;20.97;;;;;;;-2.38;85.83;96785.98;1759585;81;21466;-80
2021/12/05 04:10:26;;;;;;;51.08;20.37;;;;;;;-2.37;85.82;96786.41;1759452;81;21023;-80
2021/12/05 04:12:54;;;;;;;57.67;22.85;;;;;;;-2.37;85.62;96783.82;1759576;81;21008;-80
2021/12/05 04:15:22;;;;;;;58.23;21.95;;;;;;;-2.39;85.63;96790.33;1773978;80;21386;-81
2021/12/05 04:17:51;;;;;;;55.45;22.87;;;;;;;-2.39;85.75;96790.75;1790692;80;21008;-81
2021/12/05 04:20:19;;;;;;;60.52;22.85;;;;;;;-2.40;85.59;96794.21;1764061;80;21476;-81
2021/12/05 04:22:48;;;;;;;55.78;23.40;;;;;;;-2.37;85.95;96796.80;1768533;81;21060;-80
2021/12/05 04:25:17;;;;;;;57.83;22.32;;;;;;;-2.41;85.53;96793.33;1780535;81;21009;-81
2021/12/05 04:27:48;;;;;;;62.98;22.65;;;;;;;-2.47;85.44;96801.11;1758511;81;21000;-80
2021/12/05 04:30:21;;;;;;;56.83;23.02;;;;;;;-2.49;85.73;96807.16;1743643;82;21516;-81
2021/12/05 04:32:50;;;;;;;57.50;21.57;;;;;;;-2.48;85.90;96810.18;1743245;82;20977;-81
2021/12/05 04:35:17;;;;;;;62.17;23.52;;;;;;;-2.46;85.88;96804.13;1753123;81;20974;-81
2021/12/05 04:37:46;;;;;;;62.33;22.70;;;;;;;-2.45;85.92;96808.45;1780115;81;20991;-81
2021/12/05 04:40:15;;;;;;;62.80;22.15;;;;;;;-2.44;85.72;96804.14;1780156;81;21013;-81
2021/12/05 04:42:46;;;;;;;55.80;21.85;;;;;;;-2.43;85.72;96797.67;1780061;80;20989;-81
2021/12/05 04:45:22;;;;;;;59.53;23.18;;;;;;;-2.45;86.16;96792.89;1779742;80;20922;-81
2021/12/05 04:47:51;;;;;;;61.55;22.20;;;;;;;-2.39;86.01;96792.05;1780276;81;21082;-80
2021/12/05 04:50:20;;;;;;;66.15;23.42;;;;;;;-2.37;86.10;96791.61;1780242;81;20985;-79
2021/12/05 04:52:50;;;;;;;61.15;23.87;;;;;;;-2.34;85.89;96794.22;1780063;81;21001;-79
2021/12/05 04:55:18;;;;;;;62.05;22.73;;;;;;;-2.31;85.91;96780.38;1780139;81;20985;-80
2021/12/05 04:57:49;;;;;;;62.73;24.00;;;;;;;-2.26;86.09;96775.64;1780023;81;21430;-80
2021/12/05 05:00:25;;;;;;;55.70;21.97;;;;;;;-2.21;86.10;96777.38;1780123;81;21424;-79
2021/12/05 05:02:55;;;;;;;57.33;21.40;;;;;;;-2.18;86.00;96777.37;1779651;80;21017;-80
2021/12/05 05:05:24;;;;;;;65.30;22.93;;;;;;;-2.16;86.25;96776.95;1780042;81;21108;-79
2021/12/05 05:07:50;;;;;;;56.63;21.42;;;;;;;-2.12;86.14;96776.07;1779949;81;21020;-79
2021/12/05 05:10:22;;;;;;;56.68;22.13;;;;;;;-2.11;85.60;96770.04;1779693;81;21001;-80
2021/12/05 05:12:49;;;;;;;57.83;23.57;;;;;;;-2.14;86.01;96763.53;1779909;80;21044;-81
2021/12/05 05:15:22;;;;;;;55.48;23.80;;;;;;;-2.08;86.11;96761.39;1780090;81;21474;-80
2021/12/05 05:17:51;;;;;;;53.42;21.70;;;;;;;-2.09;85.96;96752.72;1780160;81;21442;-80
2021/12/05 05:20:25;;;;;;;52.10;22.17;;;;;;;-2.07;85.85;96772.20;1779611;81;20969;-81
2021/12/05 05:23:20;;;;;;;52.05;21.93;;;;;;;-2.04;85.60;96769.16;1770282;80;21111;-81
2021/12/05 05:46:57;;;;;;;46.73;20.77;;;;;;;-1.87;85.88;96769.17;1788361;80;21475;-79
2021/12/05 05:49:35;;;;;;;42.93;18.37;;;;;;;-1.80;85.56;96778.25;1787852;80;21004;-79
2021/12/05 05:51:52;;;;;;;37.33;17.60;;;;;;;-1.79;85.44;96792.55;1786265;80;21077;-79
2021/12/05 05:54:19;;;;;;;40.03;18.48;;;;;;;-1.77;85.28;96786.05;1788388;80;21004;-79
2021/12/05 05:56:47;;;;;;;35.65;17.10;;;;;;;-1.75;85.33;96789.09;1780255;80;21478;-80
2021/12/05 05:59:22;;;;;;;38.40;18.05;;;;;;;-1.78;85.16;96790.38;1751216;80;20953;-80
2021/12/05 06:04:15;;;;;;;38.35;18.82;;;;;;;-1.73;85.26;96798.18;1750915;82;21024;-82
2021/12/05 06:06:44;;;;;;;42.53;20.32;;;;;;;-1.73;85.19;96801.63;1750906;82;21032;-80
2021/12/05 06:09:11;;;;;;;42.15;18.90;;;;;;;-1.74;84.91;96799.91;1765667;80;21024;-81
2021/12/05 06:11:37;;;;;;;42.62;18.23;;;;;;;-1.76;84.99;96802.06;1788494;80;21406;-80
2021/12/05 06:14:04;;;;;;;38.75;18.77;;;;;;;-1.77;84.97;96805.53;1788510;80;22123;-80
2021/12/05 06:16:31;;;;;;;41.95;17.92;;;;;;;-1.75;85.14;96802.07;1788321;80;20997;-81
2021/12/05 06:18:58;;;;;;;39.33;19.70;;;;;;;-1.74;85.12;96816.78;1788412;80;20972;-80
2021/12/05 06:21:25;;;;;;;61.40;23.80;;;;;;;-1.76;84.99;96818.53;1769222;80;21071;-80
2021/12/05 06:23:51;;;;;;;60.00;23.62;;;;;;;-1.75;84.87;96818.08;1750898;82;20996;-81
2021/12/05 06:26:21;;;;;;;63.25;25.08;;;;;;;-1.83;84.89;96823.27;1750911;82;20953;-81
2021/12/05 06:29:02;;;;;;;69.92;28.02;;;;;;;-1.82;85.01;96820.25;1754483;80;21489;-81
2021/12/05 06:31:29;;;;;;;71.65;27.17;;;;;;;-1.83;85.87;96822.42;1785310;80;20980;-81
2021/12/05 06:37:09;;;;;;;60.08;25.00;;;;;;;-1.78;85.28;96825.89;1788497;80;21007;-81
2021/12/05 06:42:31;;;;;;;61.23;25.62;;;;;;;-1.71;85.69;96813.77;1751009;82;21023;-81
2021/12/05 06:47:26;;;;;;;58.33;23.85;;;;;;;-1.67;85.74;96800.77;1758584;80;21362;-81
2021/12/05 06:49:54;;;;;;;56.65;24.15;;;;;;;-1.65;85.54;96802.95;1788154;80;21391;-81
2021/12/05 06:52:23;;;;;;;65.17;25.48;;;;;;;-1.67;85.92;96803.37;1788193;80;21024;-82
2021/12/05 06:54:52;;;;;;;60.05;24.40;;;;;;;-1.65;86.07;96807.27;1788308;80;21036;-81
2021/12/05 06:57:18;;;;;;;62.17;27.85;;;;;;;-1.64;85.67;96807.27;1787258;80;21493;-81
2021/12/05 06:59:48;;;;;;;59.10;23.77;;;;;;;-1.62;85.82;96817.67;1788191;80;21016;-81
2021/12/05 07:02:18;;;;;;;62.10;25.65;;;;;;;-1.60;85.56;96819.41;1788275;80;21020;-82
2021/12/05 07:04:56;;;;;;;64.17;25.32;;;;;;;-1.58;85.83;96821.13;1788342;80;21036;-82
2021/12/05 07:07:21;;;;;;;62.48;24.90;;;;;;;-1.59;85.76;96825.45;1786383;80;21075;-81
2021/12/05 07:09:46;;;;;;;64.07;26.10;;;;;;;-1.57;85.94;96828.05;1771918;80;20995;-81
2021/12/05 07:13:02;;;;;;;55.70;23.67;;;;;;;-1.55;86.12;96823.28;1750696;82;21032;-81
2021/12/05 07:19:56;;;;;;;50.33;23.27;;;;;;;-1.42;85.72;96824.14;1748295;82;21008;-81
2021/12/05 07:22:23;;;;;;;59.53;23.67;;;;;;;-1.36;85.50;96826.72;1748863;82;21013;-81
2021/12/05 07:24:54;;;;;;;58.92;23.25;;;;;;;-1.34;85.28;96833.22;1744297;82;21442;-81
2021/12/05 07:43:51;;;;;;;61.42;25.30;;;;;;;-1.22;84.85;96833.64;1749379;82;20079;-80
2021/12/05 07:46:18;;;;;;;61.73;27.55;;;;;;;-1.25;84.56;96836.27;1764609;81;21029;-79
2021/12/05 07:48:47;;;;;;;66.53;26.97;;;;;;;-1.24;84.67;96825.00;1753639;81;21048;-79
2021/12/05 07:53:59;;;;;;;58.20;27.52;;;;;;;-1.21;85.01;96819.77;1742431;82;21008;-79
2021/12/05 07:56:35;;;;;;;55.08;25.20;;;;;;;-1.17;85.04;96814.16;1741335;82;21016;-80
2021/12/05 07:59:14;;;;;;;53.87;24.20;;;;;;;-1.14;84.81;96810.23;1763481;81;21044;-80
2021/12/05 08:15:29;;;;;;;51.63;24.45;;;;;;;-0.84;84.82;96843.53;1742827;82;21041;-82
2021/12/05 08:17:57;;;;;;;42.08;21.97;;;;;;;-0.76;84.07;96840.48;1742291;82;20985;-81
2021/12/05 08:20:33;;;;;;;52.43;24.18;;;;;;;-0.69;84.32;96839.61;1742664;82;21012;-81
2021/12/05 08:23:03;;;;;;;47.30;22.70;;;;;;;-0.69;83.30;96846.11;1769528;81;21091;-80
2021/12/05 08:25:33;;;;;;;49.20;22.85;;;;;;;-0.64;83.84;96842.59;1781304;80;21032;-80
2021/12/05 08:30:46;;;;;;;53.25;23.77;;;;;;;-0.47;83.67;96852.52;1762490;81;21089;-81
2021/12/05 08:39:20;;;;;;;51.48;24.32;;;;;;;-0.35;83.59;96840.31;1742528;82;20996;-80
2021/12/05 08:44:00;;;;;;;53.90;24.95;;;;;;;-0.24;83.10;96827.25;1777662;81;21395;-81
2021/12/05 09:08:30;;;;;;;53.45;25.08;;;;;;;-0.12;83.18;96830.22;1767665;81;21135;-81
2021/12/05 09:25:20;;;;;;;46.42;22.32;;;;;;;0.39;80.85;96835.09;1780227;81;21027;-81
2021/12/05 09:30:39;;;;;;;42.03;21.97;;;;;;;0.38;81.27;96825.09;1761055;81;21011;-81
2021/12/05 09:53:24;;;;;;;53.13;23.67;;;;;;;0.57;81.37;96839.71;1754414;81;21557;-83
2021/12/05 10:11:44;;;;;;;50.30;23.55;;;;;;;0.51;81.36;96819.80;1766374;80;20965;-82
2021/12/05 10:16:59;;;;;;;44.63;22.37;;;;;;;0.58;81.44;96812.33;1767943;80;20980;-83
2021/12/05 10:36:01;;;;;;;50.90;23.90;;;;;;;0.94;81.09;96793.73;1762078;80;20961;-84
2021/12/05 10:38:29;;;;;;;50.20;24.77;;;;;;;0.99;81.14;96790.63;1762355;81;21363;-84
2021/12/05 10:41:35;;;;;;;51.70;24.05;;;;;;;1.03;81.24;96791.03;1766252;80;21009;-83
2021/12/05 10:43:54;;;;;;;53.05;23.38;;;;;;;1.07;81.11;96786.63;1764342;80;21020;-83
2021/12/05 10:46:24;;;;;;;51.25;25.15;;;;;;;1.12;81.17;96784.84;1762052;80;20985;-83
2021/12/05 10:49:02;;;;;;;51.13;23.87;;;;;;;1.15;80.97;96785.23;1763261;80;20977;-83
2021/12/05 10:51:38;;;;;;;48.73;24.70;;;;;;;1.15;80.95;96774.38;1768224;80;20984;-82
2021/12/05 10:54:13;;;;;;;49.23;24.72;;;;;;;1.20;80.85;96775.61;1771791;80;21029;-82
2021/12/05 10:56:47;;;;;;;52.80;24.67;;;;;;;1.22;80.79;96771.68;1769317;80;21000;-83
2021/12/05 10:59:24;;;;;;;54.93;25.80;;;;;;;1.20;80.55;96765.62;1770444;80;21068;-83
2021/12/05 11:02:13;;;;;;;52.53;25.82;;;;;;;1.21;80.46;96764.74;1769860;80;21013;-83
2021/12/05 11:04:46;;;;;;;59.65;26.37;;;;;;;1.22;80.47;96752.11;1769569;80;21040;-83
2021/12/05 11:07:17;;;;;;;52.53;25.20;;;;;;;1.22;80.66;96754.72;1764173;80;21072;-82
2021/12/05 11:09:52;;;;;;;52.03;25.55;;;;;;;1.15;80.89;96752.19;1768338;80;20973;-82
2021/12/05 11:12:32;;;;;;;53.78;26.23;;;;;;;1.14;80.80;96749.16;1770099;80;20981;-83
2021/12/05 11:15:07;;;;;;;54.08;26.25;;;;;;;1.18;80.90;96756.08;1770208;80;21012;-82
2021/12/05 11:17:43;;;;;;;51.63;25.62;;;;;;;1.25;81.00;96752.08;1768955;81;21000;-83
2021/12/05 11:20:18;;;;;;;53.20;25.35;;;;;;;1.30;80.83;96760.25;1761681;80;20973;-83
2021/12/05 11:22:46;;;;;;;51.95;25.17;;;;;;;1.42;80.94;96748.80;1770787;80;21099;-83
2021/12/05 11:25:21;;;;;;;54.38;25.37;;;;;;;1.62;81.17;96746.34;1769865;80;21664;-82
2021/12/05 11:27:55;;;;;;;50.00;25.20;;;;;;;1.74;80.92;96750.54;1771056;80;21060;-82
2021/12/05 11:30:35;;;;;;;49.98;23.95;;;;;;;1.70;80.39;96757.56;1777892;80;20992;-85
2021/12/05 11:33:18;;;;;;;52.62;24.77;;;;;;;1.71;80.50;96754.06;1775031;80;21410;-86
2021/12/05 11:35:55;;;;;;;50.52;24.02;;;;;;;1.86;80.76;96748.19;1771250;80;21051;-85
2021/12/05 11:38:28;;;;;;;46.90;24.15;;;;;;;1.98;80.68;96749.75;1777943;80;21052;-85
2021/12/05 11:41:10;;;;;;;47.55;22.58;;;;;;;2.01;80.16;96752.34;1778562;80;21047;-84
2021/12/05 11:43:56;;;;;;;49.73;24.07;;;;;;;1.98;80.10;96757.16;1768809;80;21059;-87
2021/12/05 11:46:36;;;;;;;50.65;25.08;;;;;;;1.94;80.18;96746.77;1774015;80;20973;-87
2021/12/05 11:49:15;;;;;;;52.48;24.77;;;;;;;1.95;80.39;96744.59;1781290;80;21039;-83
2021/12/05 11:51:53;;;;;;;54.40;24.32;;;;;;;2.00;80.17;96747.13;1778190;80;21237;-84
2021/12/05 11:54:25;;;;;;;47.10;25.35;;;;;;;1.96;79.71;96737.17;1778327;80;20946;-85
2021/12/05 11:56:59;;;;;;;51.13;24.47;;;;;;;1.93;80.01;96738.08;1775825;80;21117;-84
2021/12/05 11:59:33;;;;;;;;;;;;;;;1.93;80.05;96729.37;1778049;80;21513;-83
2021/12/05 12:02:24;;;;;;;45.58;22.05;;;;;;;1.91;80.11;96730.70;1774150;80;20123;-85
2021/12/05 12:05:13;;;;;;;45.35;24.60;;;;;;;1.84;80.38;96722.55;1773876;80;21445;-83
2021/12/05 12:07:57;;;;;;;44.70;22.62;;;;;;;1.86;80.22;96713.38;1772656;80;21079;-83
2021/12/05 12:10:31;;;;;;;54.20;24.27;;;;;;;1.87;80.31;96709.41;1773151;80;21013;-82
2021/12/05 12:13:09;;;;;;;49.05;24.18;;;;;;;1.88;80.33;96706.38;1774651;80;21024;-83
2021/12/05 12:15:39;;;;;;;51.05;24.65;;;;;;;1.90;80.38;96705.89;1774675;80;21032;-82
2021/12/05 12:18:17;;;;;;;43.33;22.48;;;;;;;1.90;80.46;96711.99;1771578;80;21016;-83
2021/12/05 12:20:45;;;;;;;46.83;24.05;;;;;;;1.93;80.36;96702.81;1775313;80;21004;-84
2021/12/05 12:23:10;;;;;;;47.78;24.00;;;;;;;2.01;80.49;96696.16;1777119;80;21017;-83
2021/12/05 12:25:40;;;;;;;46.60;24.50;;;;;;;2.08;80.38;96693.84;1782184;80;20965;-84
2021/12/05 12:28:09;;;;;;;47.50;23.20;;;;;;;2.14;80.20;96688.96;1765672;80;21146;-85
2021/12/05 12:30:41;;;;;;;44.60;23.50;;;;;;;2.24;80.07;96693.57;1765914;80;21036;-84
2021/12/05 12:33:13;;;;;;;49.23;25.62;;;;;;;2.32;80.18;96699.54;1765390;80;21071;-84
2021/12/05 12:35:43;;;;;;;44.00;24.77;;;;;;;2.43;80.00;96695.87;1763287;80;21501;-84
2021/12/05 12:38:18;;;;;;;51.30;25.27;;;;;;;2.48;79.01;96699.26;1769594;80;20996;-85
2021/12/05 12:40:59;;;;;;;49.77;24.20;;;;;;;2.51;79.43;96693.98;1766571;80;21016;-84
2021/12/05 12:43:55;;;;;;;47.90;24.30;;;;;;;2.54;79.22;96689.14;1765681;81;21071;-85
2021/12/05 12:46:48;;;;;;;48.02;24.75;;;;;;;2.67;79.13;96684.53;1761861;80;21024;-84
2021/12/05 12:49:21;;;;;;;44.80;23.45;;;;;;;2.79;79.12;96680.39;1770799;80;21036;-83
2021/12/05 12:52:08;;;;;;;46.45;23.83;;;;;;;2.83;78.99;96681.18;1763192;80;21036;-84
2021/12/05 12:54:51;;;;;;;42.55;23.38;;;;;;;2.81;78.72;96681.64;1764523;80;21083;-84
2021/12/05 12:57:27;;;;;;;46.58;24.30;;;;;;;2.73;78.08;96681.80;1765877;80;21067;-84
2021/12/05 13:00:12;;;;;;;43.42;22.82;;;;;;;2.68;78.17;96679.28;1769628;80;21075;-84
2021/12/05 13:07:15;;;;;;;43.80;23.77;;;;;;;2.57;78.58;96691.25;1751928;81;20111;-84
2021/12/05 13:11:14;;;;;;;46.15;23.95;;;;;;;2.52;79.02;96696.17;1772652;80;20997;-84
2021/12/05 13:13:45;;;;;;;50.03;24.57;;;;;;;2.57;79.14;96683.40;1750097;81;21068;-84
2021/12/05 13:16:19;;;;;;;45.52;25.12;;;;;;;2.66;79.09;96680.20;1775832;81;21032;-85
2021/12/05 13:18:53;;;;;;;42.23;24.95;;;;;;;2.68;78.69;96691.05;1737376;82;21061;-87
2021/12/05 13:21:39;;;;;;;47.17;25.02;;;;;;;2.69;78.81;96681.00;1774504;80;21013;-82
2021/12/05 13:24:30;;;;;;;43.63;24.92;;;;;;;2.73;78.58;96680.05;1764592;81;21406;-86
2021/12/05 13:27:03;;;;;;;47.58;25.40;;;;;;;2.69;78.40;96676.23;1781677;80;21466;-86
2021/12/05 13:29:52;;;;;;;44.73;23.38;;;;;;;2.62;78.63;96679.41;1774860;80;20998;-86
2021/12/05 13:32:25;;;;;;;46.58;24.07;;;;;;;2.54;78.62;96678.25;1721433;82;20971;-86
2021/12/05 13:34:55;;;;;;;46.18;24.55;;;;;;;2.43;78.84;96677.56;1751980;82;21050;-86
2021/12/05 13:37:33;;;;;;;40.78;22.90;;;;;;;2.34;79.02;96678.60;1752074;82;21022;-86
2021/12/05 13:40:14;;;;;;;45.00;24.02;;;;;;;2.28;79.03;96680.03;1752034;82;21573;-88
2021/12/05 13:42:52;;;;;;;49.45;23.60;;;;;;;2.28;79.58;96683.48;1720536;82;21569;-86
2021/12/05 13:45:30;;;;;;;45.52;23.25;;;;;;;2.31;79.46;96682.56;1783295;80;21085;-87
2021/12/05 13:48:04;;;;;;;49.95;23.80;;;;;;;2.34;79.67;96675.55;1778203;80;21043;-87
2021/12/05 13:50:45;;;;;;;50.63;24.27;;;;;;;2.36;79.76;96666.34;1766968;81;21075;-87
2021/12/05 13:53:20;;;;;;;43.08;22.82;;;;;;;2.37;80.04;96659.79;1766862;81;21441;-85
2021/12/05 13:56:02;;;;;;;46.90;23.95;;;;;;;2.39;80.22;96653.23;1774252;80;21442;-86
2021/12/05 13:58:45;;;;;;;42.23;23.25;;;;;;;2.42;80.35;96664.95;1785952;80;20977;-85
2021/12/05 14:01:32;;;;;;;42.17;22.90;;;;;;;2.44;80.53;96665.77;1776976;80;20978;-86
2021/12/05 14:04:21;;;;;;;46.18;23.00;;;;;;;2.49;80.68;96673.09;1785149;80;21059;-87
2021/12/05 14:07:04;;;;;;;44.38;22.55;;;;;;;2.56;80.92;96673.84;1785432;80;20973;-87
2021/12/05 14:09:39;;;;;;;45.65;22.37;;;;;;;2.57;80.80;96674.25;1785148;80;20977;-86
2021/12/05 14:12:27;;;;;;;41.90;23.20;;;;;;;2.58;80.97;96682.97;1769704;80;21503;-85
2021/12/05 14:15:02;;;;;;;41.85;23.20;;;;;;;2.59;80.90;96682.94;1785410;80;21370;-85
2021/12/05 14:17:40;;;;;;;43.15;23.22;;;;;;;2.59;80.77;96678.14;1769821;80;20954;-85
2021/12/05 14:20:15;;;;;;;44.83;23.07;;;;;;;2.57;80.60;96665.09;1758387;80;20997;-85
2021/12/05 14:22:45;;;;;;;40.48;22.17;;;;;;;2.54;80.42;96670.83;1781435;80;20962;-84
2021/12/05 14:25:19;;;;;;;41.95;22.90;;;;;;;2.53;80.48;96671.73;1774727;80;21023;-78
2021/12/05 14:27:53;;;;;;;43.68;23.15;;;;;;;2.47;80.34;96662.23;1782493;80;21055;-77
2021/12/05 14:30:25;;;;;;;40.25;22.52;;;;;;;2.42;80.17;96660.16;1756931;80;21075;-76
2021/12/05 14:32:57;;;;;;;44.73;21.68;;;;;;;2.32;80.17;96676.47;1787325;80;20980;-76
2021/12/05 14:35:35;;;;;;;68.47;21.68;;;;;;;2.25;80.20;96675.72;1786864;80;21461;-76
2021/12/05 14:38:04;;;;;;;42.48;21.15;;;;;;;2.18;80.18;96668.42;1787169;80;21010;-77
2021/12/05 14:40:35;;;;;;;49.88;22.65;;;;;;;2.14;80.22;96672.41;1757116;81;21047;-76
2021/12/05 14:43:09;;;;;;;56.08;23.42;;;;;;;2.08;80.21;96678.63;1757078;82;21044;-77
2021/12/05 14:45:40;;;;;;;53.70;23.15;;;;;;;2.01;80.14;96676.98;1772857;80;21005;-85
2021/12/05 14:48:11;;;;;;;44.75;22.15;;;;;;;1.96;80.30;96680.53;1775649;80;21109;-84
2021/12/05 14:50:40;;;;;;;39.63;20.75;;;;;;;1.92;80.26;96679.31;1783525;80;21040;-84
2021/12/05 14:53:12;;;;;;;42.05;20.80;;;;;;;1.88;80.38;96675.02;1771162;80;21016;-84
2021/12/05 14:55:38;;;;;;;39.18;20.55;;;;;;;1.86;80.30;96664.59;1772370;80;21461;-84
2021/12/05 14:58:09;;;;;;;41.05;22.20;;;;;;;1.81;80.16;96659.45;1771332;80;20997;-85
2021/12/05 15:00:44;;;;;;;42.67;21.65;;;;;;;1.76;80.25;96663.02;1773283;80;20949;-85
2021/12/05 15:03:19;;;;;;;39.00;21.57;;;;;;;1.75;80.48;96673.05;1778029;80;20993;-86
2021/12/05 15:05:51;;;;;;;38.55;20.82;;;;;;;1.73;80.94;96669.16;1765237;80;21005;-87
2021/12/05 15:08:22;;;;;;;38.67;20.82;;;;;;;1.70;81.05;96662.23;1774071;80;20972;-85
2021/12/05 15:10:59;;;;;;;40.17;21.55;;;;;;;1.69;81.11;96668.78;1782573;80;20950;-86
2021/12/05 15:13:26;;;;;;;44.48;22.75;;;;;;;1.66;81.66;96664.92;1780792;80;20977;-87
2021/12/05 15:15:52;;;;;;;42.83;22.50;;;;;;;1.65;81.60;96667.09;1765346;80;21041;-85
2021/12/05 15:18:28;;;;;;;41.53;21.82;;;;;;;1.64;81.25;96678.00;1754923;82;21045;-86
2021/12/05 15:20:52;;;;;;;41.37;22.10;;;;;;;1.64;81.60;96687.57;1761385;80;21016;-86
2021/12/05 15:23:19;;;;;;;41.13;21.82;;;;;;;1.62;81.29;96678.45;1757341;80;20997;-86
2021/12/05 15:25:45;;;;;;;42.17;22.02;;;;;;;1.64;81.24;96683.66;1788018;80;21477;-86
2021/12/05 15:28:15;;;;;;;41.80;22.17;;;;;;;1.62;81.15;96688.05;1788143;80;20977;-86
2021/12/05 15:30:46;;;;;;;47.08;25.17;;;;;;;1.60;81.16;96695.03;1756497;80;21028;-83
2021/12/05 15:33:18;;;;;;;50.88;25.55;;;;;;;1.58;81.05;96696.38;1787721;80;20981;-85
2021/12/05 15:35:47;;;;;;;45.15;23.60;;;;;;;1.54;81.08;96698.61;1788159;80;22178;-84
2021/12/05 15:38:24;;;;;;;52.85;25.85;;;;;;;1.50;81.09;96686.02;1787608;80;21013;-85
2021/12/05 15:40:55;;;;;;;48.65;25.82;;;;;;;1.47;81.24;96683.48;1786881;80;21012;-84
2021/12/05 15:43:26;;;;;;;53.78;25.60;;;;;;;1.43;81.59;96678.75;1787980;80;21021;-84
2021/12/05 15:45:57;;;;;;;47.60;25.85;;;;;;;1.39;81.35;96681.41;1787815;80;20988;-85
2021/12/05 15:48:31;;;;;;;55.15;27.15;;;;;;;1.34;81.36;96688.02;1779148;80;20989;-87
2021/12/05 15:50:59;;;;;;;52.13;25.80;;;;;;;1.28;81.89;96692.86;1776819;80;21000;-85
2021/12/05 15:53:27;;;;;;;48.63;26.82;;;;;;;1.25;81.95;96690.28;1787822;80;21012;-85
2021/12/05 15:56:00;;;;;;;51.92;26.40;;;;;;;1.24;81.60;96685.11;1788062;80;20957;-84
2021/12/05 15:58:32;;;;;;;57.15;26.87;;;;;;;1.23;81.58;96682.92;1787960;80;21410;-84
2021/12/05 16:01:13;;;;;;;51.55;27.95;;;;;;;1.23;81.62;96682.05;1787927;80;20980;-85
2021/12/05 16:03:54;;;;;;;56.30;26.75;;;;;;;1.23;81.78;96679.02;1776391;80;20972;-85
2021/12/05 16:06:31;;;;;;;51.83;26.20;;;;;;;1.25;82.13;96681.61;1750267;82;20964;-82
2021/12/05 16:08:59;;;;;;;51.92;27.13;;;;;;;1.29;82.32;96690.67;1759211;80;20976;-82
2021/12/05 16:11:27;;;;;;;52.50;27.60;;;;;;;1.36;83.06;96695.36;1757136;80;21040;-86
2021/12/05 16:13:55;;;;;;;60.73;29.80;;;;;;;1.41;82.59;96694.86;1787673;80;21025;-86
2021/12/05 16:16:26;;;;;;;64.05;29.27;;;;;;;1.49;82.67;96699.97;1769628;80;20956;-84
2021/12/05 16:19:00;;;;;;;62.30;32.00;;;;;;;1.53;82.77;96695.13;1750421;82;21048;-85
2021/12/05 16:21:32;;;;;;;57.65;29.35;;;;;;;1.56;82.91;96691.61;1750236;82;21058;-86
2021/12/05 16:24:15;;;;;;;55.70;28.60;;;;;;;1.61;83.09;96689.79;1750360;82;21044;-85
2021/12/05 16:26:46;;;;;;;54.50;28.50;;;;;;;1.66;83.06;96689.27;1750185;82;20983;-84
2021/12/05 16:29:20;;;;;;;56.20;28.50;;;;;;;1.73;82.95;96687.44;1750499;82;21430;-83
2021/12/05 16:31:53;;;;;;;58.42;27.58;;;;;;;1.77;82.79;96683.02;1750452;82;21063;-85
2021/12/05 16:34:24;;;;;;;53.78;28.60;;;;;;;1.76;82.49;96686.52;1749951;82;21048;-84
2021/12/05 16:37:04;;;;;;;50.30;26.50;;;;;;;1.76;82.49;96687.83;1749919;82;20980;-85
2021/12/05 16:39:37;;;;;;;50.73;27.70;;;;;;;1.74;82.52;96685.70;1750415;82;21047;-86